createdAt,value
2018-02-01T00:02:37.138Z,67.33
2018-02-01T00:17:36.801Z,59.50
2018-02-01T00:32:36.467Z,55.23
2018-02-01T00:47:34.421Z,46.07
2018-02-01T01:02:36.895Z,55.67
2018-02-01T01:17:38.524Z,54.37
2018-02-01T01:32:36.983Z,51.93
2018-02-01T01:47:34.611Z,52.77
2018-02-01T02:02:35.104Z,48.80
2018-02-01T02:17:34.541Z,45.80
2018-02-01T02:32:43.381Z,48.30
2018-02-01T02:47:35.725Z,45.77
2018-02-01T03:02:34.300Z,40.57
2018-02-01T03:17:37.680Z,40.90
2018-02-01T03:32:36.660Z,44.53
2018-02-01T03:47:40.490Z,35.67
2018-02-01T04:02:40.674Z,45.27
2018-02-01T04:17:35.931Z,36.60
2018-02-01T04:32:35.947Z,33.77
2018-02-01T04:47:36.815Z,40.80
2018-02-01T05:02:35.621Z,34.40
2018-02-01T05:17:36.381Z,37.30
2018-02-01T05:32:35.716Z,38.00
2018-02-01T05:47:36.322Z,35.03
2018-02-01T06:02:35.009Z,38.50
2018-02-01T06:17:34.892Z,44.07
2018-02-01T06:32:35.738Z,45.80
2018-02-01T06:47:36.287Z,36.43
2018-02-01T07:02:36.738Z,34.20
2018-02-01T07:17:34.591Z,38.50
2018-02-01T07:32:35.152Z,45.20
2018-02-01T07:47:39.572Z,53.40
2018-02-01T08:02:41.573Z,49.50
2018-02-01T08:17:40.766Z,52.77
2018-02-01T08:32:36.756Z,49.00
2018-02-01T08:47:36.825Z,41.80
2018-02-01T09:02:39.335Z,41.13
2018-02-01T09:32:35.119Z,40.00
2018-02-01T09:47:36.211Z,50.00
2018-02-01T10:02:34.556Z,53.43
2018-02-01T10:17:38.363Z,35.00
2018-02-01T10:32:37.401Z,17.57
2018-02-01T10:47:35.663Z,31.40
2018-02-01T11:02:37.522Z,37.50
2018-02-01T11:17:37.704Z,24.03
2018-02-01T11:32:36.295Z,17.97
2018-02-01T11:47:36.326Z,15.23
2018-02-01T12:02:36.036Z,11.77
2018-02-01T12:17:37.088Z,12.17
2018-02-01T12:32:34.959Z,19.93
2018-02-01T12:47:35.473Z,32.73
2018-02-01T13:02:35.671Z,34.20
2018-02-01T13:17:34.948Z,28.30
2018-02-01T13:32:35.878Z,29.20
2018-02-01T13:47:36.801Z,33.80
2018-02-01T14:02:37.992Z,40.87
2018-02-01T14:17:37.150Z,22.60
2018-02-01T14:47:35.045Z,8.03
2018-02-01T15:02:35.712Z,12.37
2018-02-01T15:17:35.208Z,19.83
2018-02-01T15:32:39.010Z,24.10
2018-02-01T15:47:42.293Z,21.40
2018-02-01T16:17:34.777Z,31.57
2018-02-01T16:32:36.197Z,38.77
2018-02-01T16:47:39.030Z,41.33
2018-02-01T17:17:36.855Z,41.77
2018-02-01T17:32:36.819Z,41.77
2018-02-01T17:47:36.224Z,41.17
2018-02-01T18:02:37.992Z,41.80
2018-02-01T20:32:38.084Z,39.57
2018-02-01T20:47:36.150Z,44.07
2018-02-01T21:02:35.244Z,36.33
2018-02-01T21:17:37.736Z,31.83
2018-02-01T21:32:35.991Z,33.70
2018-02-01T21:47:38.666Z,32.13
2018-02-01T22:02:37.974Z,33.20
2018-02-01T22:17:32.813Z,33.07
2018-02-01T22:32:33.915Z,34.03
2018-02-01T22:47:37.481Z,33.80
2018-02-01T23:02:36.493Z,33.90
2018-02-01T23:17:34.210Z,33.10
2018-02-01T23:32:35.792Z,30.67
2018-02-01T23:47:37.728Z,32.73
